Aullville, Missouri
Current Conditions -  °F | °C
As of 12:35 PM on Friday 28 Nov 2014 (Local Time) from KRCM Reporting Station
Clear Clear  
Wind Chill: 55°   Ceiling: Unl
Heat Index: 55°   Visibility: 10mi
Dew Point: 32°   Wind: 18mph
Humidity: 41%   Direction: 200°SSW
Pressure: 29.9"   Gusts: 24mph
Location:  39.0541°N, 93.6618°W
Report Text: KRCM 281835Z AUTO 20016G21KT 10SM CLR 13/00 A2990 RMK AO2
Loading
Personal Weather Stations






























Interactive Weather Map New forecast layout! Learn more

10-Day Weather Forecast

Advertisements
Track Severe Weather on mobile